createdAt,value
2023-04-02T00:00:14.041Z,15.40
2023-04-02T00:03:05.322Z,15.60
2023-04-02T00:05:50.881Z,11.40
2023-04-02T00:08:49.452Z,14.30
2023-04-02T00:11:31.885Z,15.30
2023-04-02T00:14:16.490Z,16.20
2023-04-02T00:16:46.731Z,18.80
2023-04-02T00:19:32.100Z,16.20
2023-04-02T00:22:02.152Z,17.80
2023-04-02T00:24:30.412Z,16.50
2023-04-02T00:26:58.419Z,16.80
2023-04-02T00:29:26.611Z,16.30
2023-04-02T00:31:58.885Z,16.90
2023-04-02T00:34:37.392Z,23.50
2023-04-02T00:37:05.766Z,17.30
2023-04-02T00:39:42.726Z,14.70
2023-04-02T00:42:13.470Z,16.20
2023-04-02T00:44:45.377Z,15.10
2023-04-02T00:47:35.910Z,14.90
2023-04-02T00:50:21.002Z,15.30
2023-04-02T00:52:53.032Z,14.70
2023-04-02T00:55:41.849Z,13.30
2023-04-02T00:58:32.832Z,16.80
2023-04-02T01:01:03.366Z,12.20
2023-04-02T01:03:37.379Z,13.30
2023-04-02T01:06:16.087Z,14.20
2023-04-02T01:09:12.261Z,17.30
2023-04-02T01:12:02.218Z,14.40
2023-04-02T01:14:58.847Z,13.70
2023-04-02T01:17:49.151Z,16.40
2023-04-02T01:20:48.001Z,14.90
2023-04-02T01:26:05.204Z,16.50
2023-04-02T01:29:07.851Z,19.60
2023-04-02T01:31:41.146Z,18.50
2023-04-02T01:34:13.695Z,17.00
2023-04-02T01:37:13.669Z,16.00
2023-04-02T01:39:57.006Z,16.40
2023-04-02T01:42:29.143Z,15.50
2023-04-02T01:45:10.104Z,17.80
2023-04-02T01:47:41.303Z,17.10
2023-04-02T01:50:33.087Z,15.80
2023-04-02T01:53:34.477Z,14.10
2023-04-02T01:56:05.187Z,16.40
2023-04-02T01:58:33.676Z,15.30
2023-04-02T02:01:13.465Z,15.50
2023-04-02T02:03:44.374Z,14.50
2023-04-02T02:06:18.811Z,16.50
2023-04-02T02:08:56.977Z,14.60
2023-04-02T02:11:29.607Z,13.30
2023-04-02T02:14:01.072Z,10.90
2023-04-02T02:16:32.056Z,13.60
2023-04-02T02:19:02.909Z,11.40
2023-04-02T02:21:45.470Z,14.00
2023-04-02T02:24:24.543Z,13.10
2023-04-02T02:27:19.273Z,12.50
2023-04-02T02:29:55.501Z,10.70
2023-04-02T02:32:28.814Z,9.60
2023-04-02T02:35:19.414Z,10.20
2023-04-02T02:37:56.920Z,11.10
2023-04-02T02:40:37.635Z,9.90
2023-04-02T02:43:12.551Z,8.40
2023-04-02T02:45:42.917Z,9.50
2023-04-02T02:48:15.791Z,8.80
2023-04-02T02:50:45.833Z,10.10
2023-04-02T02:53:27.608Z,12.70
2023-04-02T02:56:00.375Z,13.40
2023-04-02T02:58:34.583Z,13.50
2023-04-02T03:01:18.856Z,9.20
2023-04-02T03:03:53.080Z,9.60
2023-04-02T03:06:24.008Z,12.80
2023-04-02T03:09:18.689Z,9.20
2023-04-02T03:12:18.508Z,13.60
2023-04-02T03:14:53.273Z,10.20
2023-04-02T03:17:32.048Z,16.80
2023-04-02T03:20:12.456Z,10.10
2023-04-02T03:22:56.649Z,12.10
2023-04-02T03:25:37.593Z,8.70
2023-04-02T03:28:17.368Z,9.90
2023-04-02T03:31:22.920Z,10.20
2023-04-02T03:33:59.522Z,11.30
2023-04-02T03:36:53.612Z,11.10
2023-04-02T03:39:28.358Z,8.70
2023-04-02T03:42:06.018Z,9.90
2023-04-02T03:45:06.237Z,10.10
2023-04-02T03:47:43.305Z,12.20
2023-04-02T03:50:20.143Z,8.40
2023-04-02T03:52:49.659Z,10.00
2023-04-02T03:55:23.308Z,12.30
2023-04-02T03:57:55.974Z,7.40
2023-04-02T04:00:58.857Z,9.50
2023-04-02T04:03:33.272Z,10.40
2023-04-02T04:06:31.904Z,9.80
2023-04-02T04:09:12.835Z,8.00
2023-04-02T04:11:47.497Z,8.30
2023-04-02T04:14:45.811Z,7.30
2023-04-02T04:17:51.727Z,7.90
2023-04-02T04:20:28.252Z,8.40
2023-04-02T04:23:10.688Z,6.60
2023-04-02T04:25:40.542Z,9.20
2023-04-02T04:28:25.309Z,8.00
2023-04-02T04:31:27.339Z,7.30
2023-04-02T04:34:05.332Z,9.50
2023-04-02T04:37:01.944Z,8.50
2023-04-02T04:39:44.603Z,7.90
2023-04-02T04:42:21.825Z,9.00
2023-04-02T04:45:26.828Z,7.60
2023-04-02T04:48:11.264Z,9.00
2023-04-02T04:51:01.715Z,8.30
2023-04-02T04:53:31.807Z,9.70
2023-04-02T04:56:17.990Z,7.20
2023-04-02T04:59:03.279Z,8.20
2023-04-02T05:01:50.555Z,8.80
2023-04-02T05:04:35.795Z,9.30
2023-04-02T05:07:29.113Z,8.10
2023-04-02T05:10:03.549Z,7.60
2023-04-02T05:12:40.627Z,11.90
2023-04-02T05:15:25.805Z,7.00
2023-04-02T05:18:24.615Z,8.30
2023-04-02T05:21:17.576Z,9.80
2023-04-02T05:23:45.510Z,11.10
2023-04-02T05:26:24.898Z,7.90
2023-04-02T05:29:00.326Z,9.40
2023-04-02T05:31:56.364Z,6.30
2023-04-02T05:34:35.384Z,9.00
2023-04-02T05:37:07.188Z,6.10
2023-04-02T05:39:37.701Z,7.40
2023-04-02T05:42:18.605Z,6.70
2023-04-02T05:45:05.971Z,10.50
2023-04-02T05:47:41.276Z,6.60
2023-04-02T05:50:37.284Z,6.10
2023-04-02T05:53:22.909Z,6.20
2023-04-02T05:56:01.539Z,7.20
2023-04-02T05:58:52.708Z,10.30
2023-04-02T06:02:20.486Z,9.20
2023-04-02T06:04:56.522Z,7.10
2023-04-02T06:07:36.494Z,8.00
2023-04-02T06:10:23.492Z,6.00
2023-04-02T06:13:03.426Z,10.80
2023-04-02T06:15:38.019Z,7.60
2023-04-02T06:18:17.934Z,6.50
2023-04-02T06:20:47.618Z,13.90
2023-04-02T06:23:45.445Z,14.70
2023-04-02T06:26:26.413Z,7.70
2023-04-02T06:29:24.198Z,9.30
2023-04-02T06:32:00.479Z,10.70
2023-04-02T06:34:32.165Z,7.70
2023-04-02T06:37:32.162Z,12.00
2023-04-02T06:40:40.228Z,9.30
2023-04-02T06:43:40.844Z,5.60
2023-04-02T06:46:44.259Z,7.50
2023-04-02T06:49:20.807Z,9.20
2023-04-02T06:51:54.720Z,10.20
2023-04-02T06:54:22.816Z,10.10
2023-04-02T06:56:59.086Z,11.00
2023-04-02T06:59:34.236Z,6.80
2023-04-02T07:02:22.654Z,6.50
2023-04-02T07:04:51.080Z,6.40
2023-04-02T07:07:20.108Z,8.00
2023-04-02T07:09:49.389Z,8.50
2023-04-02T07:12:22.608Z,7.40
2023-04-02T07:14:51.357Z,8.00
2023-04-02T07:17:20.837Z,7.20
2023-04-02T07:19:49.803Z,6.80
2023-04-02T07:22:20.575Z,6.90
2023-04-02T07:24:53.227Z,9.40
2023-04-02T07:27:22.379Z,7.60
2023-04-02T07:29:50.491Z,8.10
2023-04-02T07:32:19.558Z,10.30
2023-04-02T07:34:49.373Z,6.50
2023-04-02T07:37:17.447Z,7.60
2023-04-02T07:39:45.629Z,7.40
2023-04-02T07:42:13.836Z,5.30
2023-04-02T07:44:41.942Z,7.80
2023-04-02T07:47:10.704Z,5.90
2023-04-02T07:49:38.727Z,5.70
2023-04-02T07:52:07.990Z,4.20
2023-04-02T07:54:38.921Z,4.70
2023-04-02T07:57:07.126Z,5.80
2023-04-02T07:59:36.178Z,6.70
2023-04-02T08:02:04.532Z,9.10
2023-04-02T08:04:32.603Z,4.00
2023-04-02T08:07:01.914Z,6.40
2023-04-02T08:09:29.888Z,5.90
2023-04-02T08:11:58.314Z,5.60
2023-04-02T08:14:26.354Z,5.20
2023-04-02T08:16:57.076Z,6.40
2023-04-02T08:19:25.628Z,5.90
2023-04-02T08:21:56.078Z,5.50
2023-04-02T08:24:24.102Z,7.10
2023-04-02T08:26:54.766Z,6.00
2023-04-02T08:29:22.979Z,6.20
2023-04-02T08:31:51.279Z,7.40
2023-04-02T08:34:19.249Z,7.90
2023-04-02T08:36:47.478Z,6.70
2023-04-02T08:39:16.755Z,4.60
2023-04-02T08:41:52.904Z,4.50
2023-04-02T08:44:36.878Z,7.80
2023-04-02T08:47:07.714Z,6.90
2023-04-02T08:49:57.822Z,5.40
2023-04-02T08:52:32.534Z,8.40
2023-04-02T08:55:02.900Z,5.10
2023-04-02T08:57:49.419Z,5.60
2023-04-02T09:00:53.224Z,8.10
2023-04-02T09:03:30.884Z,8.00
2023-04-02T09:06:07.223Z,4.20
2023-04-02T09:08:36.974Z,8.90
2023-04-02T09:11:41.894Z,5.40
2023-04-02T09:14:19.581Z,6.50
2023-04-02T09:16:58.847Z,5.60
2023-04-02T09:19:36.405Z,5.60
2023-04-02T09:22:04.456Z,6.10
2023-04-02T09:24:32.941Z,9.20
2023-04-02T09:27:01.000Z,4.40
2023-04-02T09:29:55.164Z,4.10
2023-04-02T09:32:48.099Z,4.30
2023-04-02T09:35:27.000Z,3.50
2023-04-02T09:38:07.982Z,4.10
2023-04-02T09:41:20.199Z,5.80
2023-04-02T09:43:48.276Z,5.10
2023-04-02T09:46:23.973Z,7.50
2023-04-02T09:49:01.590Z,3.60
2023-04-02T09:51:34.800Z,4.40
2023-04-02T09:54:03.430Z,5.30
2023-04-02T09:56:39.978Z,5.60
2023-04-02T09:59:15.551Z,4.70
2023-04-02T10:01:55.985Z,4.80
2023-04-02T10:04:45.288Z,5.00
2023-04-02T10:07:41.493Z,3.70
2023-04-02T10:10:36.902Z,5.70
2023-04-02T10:13:29.715Z,3.50
2023-04-02T10:16:10.339Z,5.00
2023-04-02T10:18:46.901Z,5.50
2023-04-02T10:21:19.450Z,3.60
2023-04-02T10:23:49.076Z,4.70
2023-04-02T10:26:47.706Z,4.00
2023-04-02T10:29:21.182Z,5.40
2023-04-02T10:31:58.789Z,3.80
2023-04-02T10:34:43.433Z,3.50
2023-04-02T10:37:29.203Z,4.20
2023-04-02T10:40:19.469Z,3.70
2023-04-02T10:43:28.869Z,3.90
2023-04-02T10:46:25.600Z,3.80
2023-04-02T10:49:22.887Z,3.80
2023-04-02T10:52:29.112Z,2.60
2023-04-02T10:55:02.844Z,4.10
2023-04-02T10:57:35.926Z,3.50
2023-04-02T11:00:24.833Z,6.40
2023-04-02T11:03:08.003Z,7.20
2023-04-02T11:05:44.459Z,6.30
2023-04-02T11:08:46.563Z,2.70
2023-04-02T11:11:19.693Z,2.60
2023-04-02T11:14:10.827Z,2.60
2023-04-02T11:16:43.949Z,3.20
2023-04-02T11:19:34.585Z,3.60
2023-04-02T11:22:06.766Z,4.90
2023-04-02T11:24:44.591Z,2.50
2023-04-02T11:27:16.551Z,3.10
2023-04-02T11:30:20.604Z,4.50
2023-04-02T11:32:49.784Z,2.90
2023-04-02T11:35:36.394Z,2.60
2023-04-02T11:38:18.788Z,3.30
2023-04-02T11:40:48.292Z,4.50
2023-04-02T11:43:34.771Z,2.90
2023-04-02T11:46:26.787Z,4.60
2023-04-02T11:49:16.893Z,2.50
2023-04-02T11:51:44.942Z,1.90
2023-04-02T11:54:27.106Z,3.60
2023-04-02T11:57:16.127Z,3.90
2023-04-02T12:00:11.597Z,2.30
2023-04-02T12:03:03.532Z,3.10
2023-04-02T12:05:47.486Z,2.30
2023-04-02T12:08:58.202Z,3.20
2023-04-02T12:11:40.172Z,3.30
2023-04-02T12:14:35.475Z,4.60
2023-04-02T12:17:07.721Z,2.40
2023-04-02T12:19:37.755Z,2.30
2023-04-02T12:22:06.817Z,2.70
2023-04-02T12:24:36.098Z,3.30
2023-04-02T12:27:15.502Z,2.50
2023-04-02T12:29:43.711Z,2.60
2023-04-02T12:32:21.960Z,4.00
2023-04-02T12:34:52.139Z,4.40
2023-04-02T12:37:23.910Z,2.80
2023-04-02T12:40:07.240Z,4.50
2023-04-02T12:42:37.682Z,2.40
2023-04-02T12:45:06.996Z,2.80
2023-04-02T12:47:35.481Z,3.00
2023-04-02T12:50:04.702Z,1.80
2023-04-02T12:52:33.548Z,2.30
2023-04-02T12:55:06.286Z,2.80
2023-04-02T12:57:36.717Z,2.00
2023-04-02T13:00:21.597Z,1.80
2023-04-02T13:03:05.220Z,2.80
2023-04-02T13:05:56.412Z,2.50
2023-04-02T13:08:57.007Z,2.60
2023-04-02T13:11:38.422Z,2.40
2023-04-02T13:14:21.272Z,2.90
2023-04-02T13:16:49.454Z,2.20
2023-04-02T13:19:17.673Z,4.00
2023-04-02T13:21:47.251Z,3.20
2023-04-02T13:24:22.708Z,2.30
2023-04-02T13:26:53.636Z,2.00
2023-04-02T13:29:34.246Z,2.00
2023-04-02T13:32:08.010Z,3.30
2023-04-02T13:34:37.493Z,5.60
2023-04-02T13:37:05.518Z,3.40
2023-04-02T13:39:33.940Z,3.80
2023-04-02T13:42:04.477Z,4.20
2023-04-02T13:44:37.635Z,3.50
2023-04-02T13:47:06.466Z,2.10
2023-04-02T13:49:34.647Z,3.10
2023-04-02T13:52:05.040Z,1.70
2023-04-02T13:54:44.908Z,3.70
2023-04-02T13:57:14.914Z,3.70
2023-04-02T13:59:43.263Z,3.10
2023-04-02T14:02:18.211Z,10.00
2023-04-02T14:04:51.145Z,3.10
2023-04-02T14:07:51.650Z,4.40
2023-04-02T14:10:37.398Z,3.60
2023-04-02T14:13:12.601Z,2.70
2023-04-02T14:16:05.956Z,3.40
2023-04-02T14:18:58.856Z,2.80
2023-04-02T14:21:57.976Z,4.20
2023-04-02T14:25:08.288Z,3.50
2023-04-02T14:27:42.556Z,3.90
2023-04-02T14:30:31.527Z,3.40
2023-04-02T14:33:20.478Z,2.40
2023-04-02T14:35:57.052Z,3.20
2023-04-02T14:38:27.185Z,4.00
2023-04-02T14:41:17.523Z,4.20
2023-04-02T14:43:47.660Z,2.50
2023-04-02T14:46:16.071Z,2.90
2023-04-02T14:48:54.626Z,2.70
2023-04-02T14:51:50.095Z,2.90
2023-04-02T14:54:36.103Z,2.80
2023-04-02T14:57:12.701Z,2.10
2023-04-02T14:59:56.093Z,2.80
2023-04-02T15:05:02.364Z,2.30
2023-04-02T15:07:43.420Z,1.60
2023-04-02T15:10:29.160Z,2.00
2023-04-02T15:12:58.648Z,2.10
2023-04-02T15:15:41.922Z,2.00
2023-04-02T15:18:14.006Z,2.70
2023-04-02T15:20:49.198Z,7.00
2023-04-02T15:23:46.159Z,2.60
2023-04-02T15:26:33.426Z,2.00
2023-04-02T15:29:28.750Z,3.00
2023-04-02T15:32:32.709Z,2.30
2023-04-02T15:35:01.039Z,2.50
2023-04-02T15:38:11.293Z,2.00
2023-04-02T15:41:15.615Z,1.40
2023-04-02T15:43:47.938Z,2.20
2023-04-02T15:46:57.600Z,3.30
2023-04-02T15:49:48.010Z,3.10
2023-04-02T15:52:54.562Z,1.80
2023-04-02T15:55:28.176Z,2.50
2023-04-02T15:58:35.552Z,10.10
2023-04-02T16:01:35.482Z,3.40
2023-04-02T16:04:18.141Z,4.50
2023-04-02T16:07:14.399Z,2.90
2023-04-02T16:09:54.044Z,2.40
2023-04-02T16:12:26.010Z,3.10
2023-04-02T16:14:59.899Z,3.00
2023-04-02T16:17:41.471Z,2.20
2023-04-02T16:20:33.390Z,2.80
2023-04-02T16:23:38.595Z,2.80
2023-04-02T16:26:50.893Z,3.60
2023-04-02T16:29:35.560Z,5.10
2023-04-02T16:32:19.939Z,3.40
2023-04-02T16:35:08.912Z,3.90
2023-04-02T16:37:54.316Z,4.30
2023-04-02T16:40:41.442Z,4.30
2023-04-02T16:43:22.874Z,3.40
2023-04-02T16:46:12.458Z,4.00
2023-04-02T16:48:56.720Z,5.70
2023-04-02T16:51:51.423Z,4.60
2023-04-02T16:54:36.299Z,6.00
2023-04-02T16:57:14.720Z,5.30
2023-04-02T17:00:08.496Z,5.50
2023-04-02T17:02:52.620Z,4.50
2023-04-02T17:06:10.749Z,6.30
2023-04-02T17:08:55.175Z,5.30
2023-04-02T17:11:25.989Z,3.40
2023-04-02T17:14:08.905Z,3.80
2023-04-02T17:16:45.874Z,3.00
2023-04-02T17:19:16.421Z,4.70
2023-04-02T17:21:53.858Z,3.10
2023-04-02T17:24:51.853Z,3.20
2023-04-02T17:27:48.080Z,2.80
2023-04-02T17:30:19.932Z,2.60
2023-04-02T17:32:49.925Z,2.50
2023-04-02T17:36:04.807Z,2.80
2023-04-02T17:38:36.179Z,4.30
2023-04-02T17:41:20.745Z,3.20
2023-04-02T17:44:05.216Z,2.80
2023-04-02T17:46:57.644Z,1.90
2023-04-02T17:49:38.474Z,1.60
2023-04-02T17:52:14.720Z,2.40
2023-04-02T17:55:03.204Z,2.60
2023-04-02T17:57:49.810Z,2.10
2023-04-02T18:00:54.990Z,4.30
2023-04-02T18:03:32.229Z,1.20
2023-04-02T18:06:33.367Z,1.00
2023-04-02T18:10:00.872Z,2.00
2023-04-02T18:12:49.260Z,1.10
2023-04-02T18:16:01.100Z,1.80
2023-04-02T18:19:06.149Z,1.70
2023-04-02T18:21:51.399Z,3.30
2023-04-02T18:24:54.920Z,4.80
2023-04-02T18:27:58.465Z,5.10
2023-04-02T18:30:50.487Z,3.30
2023-04-02T18:33:48.172Z,4.80
2023-04-02T18:36:26.477Z,3.30
2023-04-02T18:39:10.875Z,3.70
2023-04-02T18:41:45.179Z,2.30
2023-04-02T18:44:28.724Z,5.60
2023-04-02T18:47:17.190Z,3.90
2023-04-02T18:50:05.394Z,3.90
2023-04-02T18:52:34.621Z,3.50
2023-04-02T18:55:32.759Z,5.80
2023-04-02T18:58:09.345Z,5.20
2023-04-02T19:00:41.516Z,4.40
2023-04-02T19:03:38.437Z,3.60
2023-04-02T19:06:43.771Z,3.70
2023-04-02T19:09:31.074Z,4.30
2023-04-02T19:12:08.632Z,4.20
2023-04-02T19:14:38.485Z,4.50
2023-04-02T19:17:56.144Z,5.60
2023-04-02T19:20:55.175Z,5.70
2023-04-02T19:23:23.221Z,7.50
2023-04-02T19:25:57.883Z,6.00
2023-04-02T19:29:08.286Z,6.80
2023-04-02T19:31:49.804Z,7.40
2023-04-02T19:34:40.510Z,6.60
2023-04-02T19:37:22.729Z,11.30
2023-04-02T19:40:00.378Z,7.70
2023-04-02T19:42:35.158Z,6.40
2023-04-02T19:45:04.145Z,7.90
2023-04-02T19:47:32.150Z,9.30
2023-04-02T19:50:00.381Z,7.70
2023-04-02T19:52:28.333Z,8.20
2023-04-02T19:54:56.349Z,8.40
2023-04-02T19:57:24.619Z,7.30
2023-04-02T19:59:53.064Z,7.00
2023-04-02T20:02:21.653Z,8.40
2023-04-02T20:04:53.006Z,8.00
2023-04-02T20:07:21.135Z,8.70
2023-04-02T20:09:49.284Z,8.10
2023-04-02T20:12:20.360Z,10.50
2023-04-02T20:14:48.512Z,12.20
2023-04-02T20:17:17.032Z,9.00
2023-04-02T20:19:45.972Z,8.00
2023-04-02T20:22:14.054Z,8.20
2023-04-02T20:24:42.710Z,7.20
2023-04-02T20:27:11.822Z,8.40
2023-04-02T20:29:42.379Z,5.70
2023-04-02T20:32:10.456Z,6.90
2023-04-02T20:34:39.922Z,5.30
2023-04-02T20:37:09.670Z,5.80
2023-04-02T20:39:37.684Z,4.20
2023-04-02T20:42:06.292Z,5.20
2023-04-02T20:44:34.592Z,3.70
2023-04-02T20:47:02.656Z,4.60
2023-04-02T20:49:31.973Z,7.10
2023-04-02T20:52:00.095Z,4.60
2023-04-02T20:54:28.139Z,4.00
2023-04-02T20:56:56.118Z,3.80
2023-04-02T20:59:24.380Z,6.90
2023-04-02T21:01:54.003Z,4.40
2023-04-02T21:04:22.768Z,3.40
2023-04-02T21:06:57.534Z,4.30
2023-04-02T21:09:26.558Z,3.80
2023-04-02T21:11:55.748Z,6.00
2023-04-02T21:14:24.513Z,3.30
2023-04-02T21:16:56.005Z,4.30
2023-04-02T21:19:24.023Z,5.40
2023-04-02T21:21:54.876Z,4.70
2023-04-02T21:24:24.631Z,4.80
2023-04-02T21:26:53.396Z,4.50
2023-04-02T21:29:21.521Z,4.10
2023-04-02T21:31:50.396Z,4.60
2023-04-02T21:34:19.656Z,3.80
2023-04-02T21:36:48.824Z,4.00
2023-04-02T21:39:24.970Z,5.00
2023-04-02T21:41:53.978Z,4.70
2023-04-02T21:44:24.228Z,3.80
2023-04-02T21:46:54.268Z,5.60
2023-04-02T21:49:23.394Z,6.90
2023-04-02T21:51:53.365Z,5.60
2023-04-02T21:54:21.664Z,6.20
2023-04-02T21:56:50.094Z,4.80
2023-04-02T21:59:18.644Z,5.70
2023-04-02T22:01:50.008Z,5.20
2023-04-02T22:04:23.909Z,5.70
2023-04-02T22:06:52.834Z,8.30
2023-04-02T22:09:23.883Z,7.30
2023-04-02T22:11:54.635Z,6.00
2023-04-02T22:14:23.546Z,7.20
2023-04-02T22:16:52.991Z,10.00
2023-04-02T22:19:21.745Z,7.30
2023-04-02T22:21:50.065Z,7.40
2023-04-02T22:24:22.413Z,7.40
2023-04-02T22:26:51.754Z,7.10
2023-04-02T22:29:19.807Z,7.70
2023-04-02T22:31:47.831Z,7.40
2023-04-02T22:34:16.088Z,6.70
2023-04-02T22:36:44.167Z,7.40
2023-04-02T22:39:17.096Z,7.00
2023-04-02T22:41:45.307Z,6.60
2023-04-02T22:44:14.908Z,5.80
2023-04-02T22:46:43.248Z,6.50
2023-04-02T22:49:11.771Z,6.20
2023-04-02T22:51:42.729Z,6.80
2023-04-02T22:54:11.490Z,7.30
2023-04-02T22:56:41.253Z,6.50
2023-04-02T22:59:09.531Z,7.60
2023-04-02T23:01:40.142Z,8.50
2023-04-02T23:04:08.910Z,6.20
2023-04-02T23:06:36.946Z,6.50
2023-04-02T23:09:05.996Z,7.60
2023-04-02T23:11:34.120Z,6.40
2023-04-02T23:14:02.884Z,7.70
2023-04-02T23:16:33.345Z,7.20
2023-04-02T23:19:02.641Z,8.40
2023-04-02T23:21:30.740Z,7.20
2023-04-02T23:23:59.256Z,8.60
2023-04-02T23:26:31.475Z,7.80
2023-04-02T23:29:01.957Z,8.20
2023-04-02T23:31:33.374Z,8.00
2023-04-02T23:34:01.487Z,8.80
2023-04-02T23:36:32.675Z,7.30
2023-04-02T23:39:04.154Z,8.20
2023-04-02T23:41:32.294Z,9.20
2023-04-02T23:44:00.509Z,9.30
2023-04-02T23:46:29.618Z,7.90
2023-04-02T23:48:59.078Z,7.80
2023-04-02T23:51:29.070Z,7.60
2023-04-02T23:53:57.082Z,8.10
2023-04-02T23:56:25.993Z,7.90
2023-04-02T23:58:54.711Z,8.70
